Terminal Aerodrome Forecast
Issued by NWS

Home | Current Version | Previous Version | Text Only | Print | Product List | Glossary On
Versions: 1 2 3 4 5 6 7 8 9 10 11 12 13 14
000
FTUS44 KEPZ 280541
TAFTCS
TAF
KTCS 280541Z 2806/2906 30005KT P6SM FEW120 BKN250
     FM281700 16008KT P6SM FEW080 SCT250
     FM290500 30005KT P6SM BKN250=

USA.gov is the U.S. government's official web portal to all federal, state and local government web resources and services.